createdAt,value
2017-01-09T04:00:36.740Z,1029.3
2017-01-09T04:01:02.304Z,1029.34
2017-01-09T04:01:27.861Z,1029.36
2017-01-09T04:01:53.413Z,1029.34
2017-01-09T04:02:18.959Z,1029.32
2017-01-09T04:02:44.588Z,1029.35
2017-01-09T04:03:10.370Z,1029.29
2017-01-09T04:03:35.943Z,1029.29
2017-01-09T04:04:01.605Z,1029.31
2017-01-09T04:04:27.267Z,1029.31
2017-01-09T04:04:52.765Z,1029.3
2017-01-09T04:05:18.315Z,1029.3
2017-01-09T04:05:43.887Z,1029.27
2017-01-09T04:07:55.856Z,1029.25
2017-01-09T04:08:21.495Z,1029.27
2017-01-09T04:09:19.574Z,1029.22
2017-01-09T04:09:45.140Z,1029.22
2017-01-09T04:10:10.753Z,1029.26
2017-01-09T04:10:36.406Z,1029.24
2017-01-09T04:11:01.993Z,1029.21
2017-01-09T04:11:27.641Z,1029.18
2017-01-09T04:11:53.211Z,1029.16
2017-01-09T04:12:18.872Z,1029.14
2017-01-09T04:12:44.437Z,1029.18
2017-01-09T04:13:10.000Z,1029.16
2017-01-09T04:14:29.051Z,1029.16
2017-01-09T04:14:54.731Z,1029.14
2017-01-09T04:15:20.305Z,1029.15
2017-01-09T04:15:46.009Z,1029.15
2017-01-09T04:16:11.639Z,1029.12
2017-01-09T04:16:37.202Z,1029.11
2017-01-09T04:17:02.856Z,1029.11
2017-01-09T04:17:28.632Z,1029.1
2017-01-09T04:17:54.211Z,1029.12
2017-01-09T04:18:19.882Z,1029.13
2017-01-09T04:18:45.500Z,1029.12
2017-01-09T04:19:11.098Z,1029.12
2017-01-09T04:19:36.700Z,1029.11
2017-01-09T04:20:02.270Z,1029.13
2017-01-09T04:20:27.831Z,1029.12
2017-01-09T04:20:53.402Z,1029.13
2017-01-09T04:21:19.072Z,1029.09
2017-01-09T04:21:44.765Z,1029.1
2017-01-09T04:22:10.330Z,1029.16
2017-01-09T04:22:35.951Z,1029.12
2017-01-09T04:23:01.600Z,1029.11
2017-01-09T04:23:27.172Z,1029.11
2017-01-09T04:24:35.496Z,1029.14
2017-01-09T04:25:01.186Z,1029.08
2017-01-09T04:25:26.753Z,1029.08
2017-01-09T04:25:52.396Z,1029.14
2017-01-09T04:26:18.020Z,1029.09
2017-01-09T04:26:43.639Z,1029.07
2017-01-09T04:27:09.199Z,1029.1
2017-01-09T04:27:34.785Z,1029.12
2017-01-09T04:28:00.360Z,1029.13
2017-01-09T04:28:26.020Z,1029.12
2017-01-09T04:28:51.671Z,1029.07
2017-01-09T04:29:17.255Z,1029.14
2017-01-09T04:29:42.845Z,1029.09
2017-01-09T04:30:08.446Z,1029.12
2017-01-09T04:30:34.103Z,1029.07
2017-01-09T04:30:59.676Z,1029.05
2017-01-09T04:31:25.238Z,1029.05
2017-01-09T04:31:50.911Z,1029.03
2017-01-09T04:32:16.472Z,1029.04
2017-01-09T04:32:42.151Z,1029.02
2017-01-09T04:33:07.918Z,1029.03
2017-01-09T04:33:33.495Z,1029.05
2017-01-09T04:33:59.150Z,1028.99
2017-01-09T04:34:24.844Z,1029.03
2017-01-09T04:34:50.410Z,1029
2017-01-09T04:35:15.977Z,1029.01
2017-01-09T04:35:41.534Z,1028.97
2017-01-09T04:36:07.123Z,1028.97
2017-01-09T04:36:32.790Z,1028.99
2017-01-09T04:37:36.021Z,1028.97
2017-01-09T04:38:01.590Z,1028.97
2017-01-09T04:38:27.288Z,1028.93
2017-01-09T04:38:52.873Z,1028.9
2017-01-09T04:39:18.476Z,1028.94
2017-01-09T04:39:44.126Z,1028.91
2017-01-09T04:40:09.659Z,1028.9
2017-01-09T04:41:07.742Z,1028.9
2017-01-09T04:41:33.380Z,1028.85
2017-01-09T04:41:59.045Z,1028.84
2017-01-09T04:42:24.873Z,1028.85
2017-01-09T04:42:50.342Z,1028.86
2017-01-09T04:43:15.897Z,1028.85
2017-01-09T04:43:41.551Z,1028.84
2017-01-09T04:44:07.188Z,1028.86
2017-01-09T04:44:33.109Z,1028.83
2017-01-09T04:44:58.713Z,1028.86
2017-01-09T04:45:24.355Z,1028.82
2017-01-09T04:45:49.923Z,1028.8
2017-01-09T04:46:15.481Z,1028.86
2017-01-09T04:46:41.173Z,1028.81
2017-01-09T04:47:06.755Z,1028.83
2017-01-09T04:47:32.498Z,1028.8
2017-01-09T04:47:58.261Z,1028.82
2017-01-09T04:48:23.870Z,1028.85
2017-01-09T04:48:49.417Z,1028.79
2017-01-09T04:49:15.002Z,1028.83
2017-01-09T04:49:40.571Z,1028.82
2017-01-09T04:50:06.267Z,1028.84
2017-01-09T04:50:31.824Z,1028.82
2017-01-09T04:50:57.528Z,1028.81
2017-01-09T04:51:23.133Z,1028.81
2017-01-09T04:51:48.686Z,1028.81
2017-01-09T04:52:14.246Z,1028.76
2017-01-09T04:52:40.168Z,1028.8
2017-01-09T04:53:05.765Z,1028.75
2017-01-09T04:55:07.232Z,1028.76
2017-01-09T04:56:20.696Z,1028.72
2017-01-09T04:56:46.469Z,1028.77
2017-01-09T04:57:12.115Z,1028.75
2017-01-09T04:57:37.680Z,1028.72
2017-01-09T04:58:03.264Z,1028.74
2017-01-09T04:58:28.824Z,1028.69
2017-01-09T04:58:54.419Z,1028.73
2017-01-09T04:59:19.992Z,1028.67
2017-01-09T04:59:45.578Z,1028.69
2017-01-09T05:00:11.142Z,1028.64
2017-01-09T05:00:36.708Z,1028.65
2017-01-09T05:01:02.288Z,1028.61
2017-01-09T05:01:27.839Z,1028.64
2017-01-09T05:02:41.318Z,1028.58
2017-01-09T05:03:06.882Z,1028.62
2017-01-09T05:03:32.461Z,1028.65
2017-01-09T05:03:58.031Z,1028.63
2017-01-09T05:04:23.654Z,1028.61
2017-01-09T05:04:49.239Z,1028.6
2017-01-09T05:05:14.802Z,1028.63
2017-01-09T05:05:40.391Z,1028.62
2017-01-09T05:06:06.021Z,1028.58
2017-01-09T05:06:31.612Z,1028.59
2017-01-09T05:06:57.254Z,1028.6
2017-01-09T05:07:22.844Z,1028.55
2017-01-09T05:07:48.423Z,1028.56
2017-01-09T05:08:13.986Z,1028.6
2017-01-09T05:08:39.671Z,1028.6
2017-01-09T05:09:05.362Z,1028.61
2017-01-09T05:09:30.903Z,1028.59
2017-01-09T05:09:56.501Z,1028.58
2017-01-09T05:10:22.054Z,1028.59
2017-01-09T05:10:47.619Z,1028.64
2017-01-09T05:11:13.281Z,1028.59
2017-01-09T05:11:38.806Z,1028.57
2017-01-09T05:12:04.452Z,1028.6
2017-01-09T05:12:30.013Z,1028.57
2017-01-09T05:12:55.649Z,1028.6
2017-01-09T05:13:21.266Z,1028.6
2017-01-09T05:13:46.866Z,1028.57
2017-01-09T05:14:12.556Z,1028.62
2017-01-09T05:14:38.118Z,1028.64
2017-01-09T05:15:03.806Z,1028.63
2017-01-09T05:15:29.523Z,1028.62
2017-01-09T05:15:55.092Z,1028.63
2017-01-09T05:17:08.662Z,1028.57
2017-01-09T05:17:34.202Z,1028.56
2017-01-09T05:17:59.854Z,1028.6
2017-01-09T05:18:25.456Z,1028.63
2017-01-09T05:18:51.045Z,1028.61
2017-01-09T05:19:16.642Z,1028.57
2017-01-09T05:19:42.204Z,1028.65
2017-01-09T05:20:07.845Z,1028.61
2017-01-09T05:20:33.553Z,1028.63
2017-01-09T05:20:59.168Z,1028.59
2017-01-09T05:21:24.784Z,1028.6
2017-01-09T05:21:50.351Z,1028.61
2017-01-09T05:22:16.028Z,1028.59
2017-01-09T05:22:41.751Z,1028.55
2017-01-09T05:23:07.305Z,1028.58
2017-01-09T05:23:32.891Z,1028.58
2017-01-09T05:23:58.491Z,1028.55
2017-01-09T05:24:24.055Z,1028.56
2017-01-09T05:24:49.670Z,1028.58
2017-01-09T05:25:15.236Z,1028.56
2017-01-09T05:25:40.813Z,1028.55
2017-01-09T05:26:06.387Z,1028.52
2017-01-09T05:26:32.065Z,1028.53
2017-01-09T05:26:57.624Z,1028.53
2017-01-09T05:27:23.197Z,1028.52
2017-01-09T05:27:48.859Z,1028.5
2017-01-09T05:28:14.411Z,1028.48
2017-01-09T05:28:40.046Z,1028.51
2017-01-09T05:29:48.384Z,1028.45
2017-01-09T05:30:13.988Z,1028.46
2017-01-09T05:30:39.547Z,1028.47
2017-01-09T05:31:05.123Z,1028.44
2017-01-09T05:31:30.688Z,1028.46
2017-01-09T05:31:56.295Z,1028.45
2017-01-09T05:32:21.918Z,1028.47
2017-01-09T05:32:47.490Z,1028.44
2017-01-09T05:33:13.120Z,1028.46
2017-01-09T05:33:38.901Z,1028.44
2017-01-09T05:34:04.456Z,1028.44
2017-01-09T05:34:30.062Z,1028.45
2017-01-09T05:35:28.169Z,1028.46
2017-01-09T05:35:53.768Z,1028.42
2017-01-09T05:36:19.312Z,1028.4
2017-01-09T05:36:44.909Z,1028.4
2017-01-09T05:37:10.450Z,1028.33
2017-01-09T05:37:36.051Z,1028.4
2017-01-09T05:38:01.746Z,1028.39
2017-01-09T05:38:27.254Z,1028.4
2017-01-09T05:38:52.833Z,1028.35
2017-01-09T05:39:18.403Z,1028.4
2017-01-09T05:39:44.075Z,1028.37
2017-01-09T05:40:09.797Z,1028.35
2017-01-09T05:40:35.373Z,1028.35
2017-01-09T05:41:00.991Z,1028.33
2017-01-09T05:41:26.561Z,1028.32
2017-01-09T05:41:52.180Z,1028.38
2017-01-09T05:42:17.806Z,1028.31
2017-01-09T05:42:43.432Z,1028.31
2017-01-09T05:43:08.998Z,1028.3
2017-01-09T05:43:34.565Z,1028.32
2017-01-09T05:44:00.258Z,1028.3
2017-01-09T05:44:25.898Z,1028.28
2017-01-09T05:44:51.616Z,1028.29
2017-01-09T05:45:17.239Z,1028.32
2017-01-09T05:45:42.906Z,1028.26
2017-01-09T05:46:08.488Z,1028.27
2017-01-09T05:46:34.087Z,1028.23
2017-01-09T05:46:59.663Z,1028.25
2017-01-09T05:47:25.338Z,1028.26
2017-01-09T05:47:50.922Z,1028.25
2017-01-09T05:48:16.487Z,1028.21
2017-01-09T05:48:42.153Z,1028.21
2017-01-09T05:49:07.704Z,1028.24
2017-01-09T05:49:33.311Z,1028.2
2017-01-09T05:49:58.962Z,1028.21
2017-01-09T05:50:24.549Z,1028.2
2017-01-09T05:50:50.139Z,1028.23
2017-01-09T05:51:15.702Z,1028.23
2017-01-09T05:51:41.359Z,1028.17
2017-01-09T05:52:06.984Z,1028.2
2017-01-09T05:52:32.569Z,1028.2
2017-01-09T05:52:58.161Z,1028.16
2017-01-09T05:53:23.722Z,1028.17
2017-01-09T05:53:49.347Z,1028.18
2017-01-09T05:54:14.954Z,1028.16
2017-01-09T05:54:40.545Z,1028.16
2017-01-09T05:55:06.172Z,1028.13
2017-01-09T05:55:31.739Z,1028.18
2017-01-09T05:55:57.311Z,1028.2
2017-01-09T05:56:22.940Z,1028.14
2017-01-09T05:56:48.579Z,1028.14
2017-01-09T05:57:14.143Z,1028.18
2017-01-09T05:58:12.363Z,1028.14
2017-01-09T05:58:37.935Z,1028.16
2017-01-09T05:59:03.631Z,1028.18
2017-01-09T05:59:29.218Z,1028.18
2017-01-09T05:59:54.784Z,1028.14
2017-01-09T06:00:20.367Z,1028.17
2017-01-09T06:00:45.933Z,1028.13
2017-01-09T06:01:11.523Z,1028.16
2017-01-09T06:01:37.109Z,1028.13
2017-01-09T06:02:02.754Z,1028.09
2017-01-09T06:02:28.429Z,1028.1
2017-01-09T06:02:53.972Z,1028.08
2017-01-09T06:03:19.627Z,1028.1
2017-01-09T06:03:45.224Z,1028.07
2017-01-09T06:04:10.780Z,1028.1
2017-01-09T06:04:36.343Z,1028.11
2017-01-09T06:05:02.007Z,1028.1
2017-01-09T06:05:27.669Z,1028.16
2017-01-09T06:05:53.319Z,1028.12
2017-01-09T06:06:18.883Z,1028.09
2017-01-09T06:06:44.614Z,1028.11
2017-01-09T06:07:10.271Z,1028.08
2017-01-09T06:07:35.842Z,1028.14
2017-01-09T06:08:01.468Z,1028.13
2017-01-09T06:08:27.038Z,1028.08
2017-01-09T06:08:52.653Z,1028.09
2017-01-09T06:09:18.227Z,1028.09
2017-01-09T06:09:43.881Z,1028.09
2017-01-09T06:10:09.452Z,1028.1
2017-01-09T06:10:35.003Z,1028.11
2017-01-09T06:11:00.612Z,1028.08
2017-01-09T06:11:26.288Z,1028.14
2017-01-09T06:11:51.842Z,1028.11
2017-01-09T06:12:17.482Z,1028.08
2017-01-09T06:12:43.084Z,1028.1
2017-01-09T06:13:08.647Z,1028.1
2017-01-09T06:13:34.204Z,1028.08
2017-01-09T06:13:59.821Z,1028.08
2017-01-09T06:14:25.528Z,1028.09
2017-01-09T06:14:51.113Z,1028.11
2017-01-09T06:15:16.734Z,1028.12
2017-01-09T06:15:42.309Z,1028.1
2017-01-09T06:16:07.902Z,1028.11
2017-01-09T06:16:33.454Z,1028.04
2017-01-09T06:16:59.053Z,1028.11
2017-01-09T06:17:24.636Z,1028.08
2017-01-09T06:17:50.188Z,1028.15
2017-01-09T06:18:15.887Z,1028.11
2017-01-09T06:18:41.440Z,1028.12
2017-01-09T06:19:06.983Z,1028.1
2017-01-09T06:19:32.570Z,1028.09
2017-01-09T06:19:58.122Z,1028.11
2017-01-09T06:20:23.700Z,1028.03
2017-01-09T06:20:49.273Z,1028.08
2017-01-09T06:21:14.889Z,1028.1
2017-01-09T06:21:40.428Z,1028.06
2017-01-09T06:22:06.006Z,1028.06
2017-01-09T06:22:31.619Z,1028.07
2017-01-09T06:22:57.174Z,1028.09
2017-01-09T06:23:22.834Z,1028.07
2017-01-09T06:23:49.282Z,1028.06
2017-01-09T06:24:15.046Z,1028.04
2017-01-09T06:24:40.678Z,1028.05
2017-01-09T06:25:06.262Z,1028.04
2017-01-09T06:25:31.945Z,1028.05
2017-01-09T06:25:57.477Z,1028.07
2017-01-09T06:26:23.026Z,1028.03
2017-01-09T06:26:48.713Z,1028.04
2017-01-09T06:27:14.246Z,1028
2017-01-09T06:27:39.863Z,1028.07
2017-01-09T06:28:05.569Z,1028.08
2017-01-09T06:28:31.121Z,1028.06
2017-01-09T06:28:56.695Z,1028.03
2017-01-09T06:29:22.228Z,1028.02
2017-01-09T06:29:47.869Z,1028.03
2017-01-09T06:30:13.420Z,1028
2017-01-09T06:30:39.023Z,1028
2017-01-09T06:31:04.670Z,1028.03
2017-01-09T06:31:30.300Z,1028.01
2017-01-09T06:31:55.892Z,1028.03
2017-01-09T06:32:21.417Z,1028
2017-01-09T06:32:47.079Z,1028
2017-01-09T06:33:12.655Z,1028.01
2017-01-09T06:33:38.220Z,1027.97
2017-01-09T06:34:56.890Z,1027.96
2017-01-09T06:35:55.206Z,1027.96
2017-01-09T06:36:20.843Z,1027.96
2017-01-09T06:36:46.525Z,1027.93
2017-01-09T06:37:12.154Z,1027.93
2017-01-09T06:37:37.907Z,1027.93
2017-01-09T06:38:03.466Z,1027.88
2017-01-09T06:38:29.103Z,1027.88
2017-01-09T06:38:54.710Z,1027.9
2017-01-09T06:39:20.292Z,1027.89
2017-01-09T06:39:45.930Z,1027.89
2017-01-09T06:40:11.934Z,1027.88
2017-01-09T06:40:37.271Z,1027.85
2017-01-09T06:41:02.934Z,1027.87
2017-01-09T06:41:28.496Z,1027.87
2017-01-09T06:41:54.043Z,1027.86
2017-01-09T06:42:19.588Z,1027.85
2017-01-09T06:42:45.177Z,1027.83
2017-01-09T06:43:10.812Z,1027.87
2017-01-09T06:43:36.388Z,1027.78
2017-01-09T06:44:01.987Z,1027.81
2017-01-09T06:44:27.583Z,1027.8
2017-01-09T06:44:53.137Z,1027.78
2017-01-09T06:45:18.726Z,1027.77
2017-01-09T06:45:44.281Z,1027.75
2017-01-09T06:46:09.873Z,1027.73
2017-01-09T06:46:35.448Z,1027.75
2017-01-09T06:47:01.076Z,1027.72
2017-01-09T06:47:26.867Z,1027.74
2017-01-09T06:47:52.438Z,1027.71
2017-01-09T06:48:18.126Z,1027.71
2017-01-09T06:48:43.702Z,1027.71
2017-01-09T06:49:09.260Z,1027.69
2017-01-09T06:49:34.879Z,1027.71
2017-01-09T06:50:00.428Z,1027.7
2017-01-09T06:50:26.140Z,1027.7
2017-01-09T06:50:51.721Z,1027.7
2017-01-09T06:51:17.386Z,1027.64
2017-01-09T06:51:42.931Z,1027.69
2017-01-09T06:52:08.517Z,1027.66
2017-01-09T06:52:34.391Z,1027.64
2017-01-09T06:52:59.966Z,1027.65
2017-01-09T06:53:25.508Z,1027.69
2017-01-09T06:53:51.109Z,1027.67
2017-01-09T06:54:16.662Z,1027.69
2017-01-09T06:54:42.210Z,1027.63
2017-01-09T06:55:07.777Z,1027.64
2017-01-09T06:55:33.423Z,1027.65
2017-01-09T06:55:58.982Z,1027.68
2017-01-09T06:56:24.540Z,1027.65
2017-01-09T06:56:50.673Z,1027.63
2017-01-09T06:57:16.278Z,1027.65
2017-01-09T06:57:41.968Z,1027.62
2017-01-09T06:58:07.556Z,1027.61
2017-01-09T06:58:33.138Z,1027.61
2017-01-09T06:58:58.770Z,1027.61
2017-01-09T06:59:24.386Z,1027.6
2017-01-09T06:59:50.035Z,1027.57
2017-01-09T07:00:15.639Z,1027.57
2017-01-09T07:01:13.764Z,1027.56
2017-01-09T07:01:39.397Z,1027.54
2017-01-09T07:02:04.959Z,1027.56
2017-01-09T07:02:30.567Z,1027.55
2017-01-09T07:02:56.138Z,1027.56
2017-01-09T07:03:21.697Z,1027.52
2017-01-09T07:03:47.247Z,1027.51
2017-01-09T07:04:12.889Z,1027.55
2017-01-09T07:04:38.445Z,1027.54
2017-01-09T07:05:03.999Z,1027.53
2017-01-09T07:05:29.652Z,1027.54
2017-01-09T07:05:55.223Z,1027.56
2017-01-09T07:06:20.778Z,1027.51
2017-01-09T07:06:46.453Z,1027.54
2017-01-09T07:07:12.029Z,1027.54
2017-01-09T07:07:37.580Z,1027.57
2017-01-09T07:08:03.151Z,1027.57
2017-01-09T07:08:28.712Z,1027.54
2017-01-09T07:08:54.276Z,1027.55
2017-01-09T07:09:19.903Z,1027.56
2017-01-09T07:09:45.472Z,1027.55
2017-01-09T07:10:11.155Z,1027.54
2017-01-09T07:10:36.724Z,1027.54
2017-01-09T07:11:02.292Z,1027.53
2017-01-09T07:11:27.856Z,1027.55
2017-01-09T07:11:53.446Z,1027.58
2017-01-09T07:12:18.993Z,1027.55
2017-01-09T07:12:44.556Z,1027.54
2017-01-09T07:13:10.123Z,1027.54
2017-01-09T07:13:35.743Z,1027.54
2017-01-09T07:14:01.357Z,1027.55
2017-01-09T07:14:26.914Z,1027.56
2017-01-09T07:14:52.479Z,1027.56
2017-01-09T07:15:18.064Z,1027.55
2017-01-09T07:15:43.618Z,1027.54
2017-01-09T07:16:09.169Z,1027.51
2017-01-09T07:16:34.738Z,1027.53
2017-01-09T07:17:00.295Z,1027.58
2017-01-09T07:17:25.840Z,1027.52
2017-01-09T07:17:51.399Z,1027.5
2017-01-09T07:18:54.609Z,1027.5
2017-01-09T07:19:20.175Z,1027.52
2017-01-09T07:19:45.801Z,1027.49
2017-01-09T07:20:11.403Z,1027.51
2017-01-09T07:20:36.969Z,1027.55
2017-01-09T07:21:02.509Z,1027.51
2017-01-09T07:21:28.078Z,1027.52
2017-01-09T07:21:53.697Z,1027.51
2017-01-09T07:22:19.298Z,1027.49
2017-01-09T07:22:44.872Z,1027.53
2017-01-09T07:23:10.475Z,1027.51
2017-01-09T07:23:36.055Z,1027.49
2017-01-09T07:24:01.629Z,1027.5
2017-01-09T07:24:27.198Z,1027.54
2017-01-09T07:24:52.938Z,1027.54
2017-01-09T07:25:18.498Z,1027.49
2017-01-09T07:25:44.051Z,1027.5
2017-01-09T07:26:09.696Z,1027.5
2017-01-09T07:26:35.253Z,1027.49
2017-01-09T07:27:00.890Z,1027.47
2017-01-09T07:27:26.526Z,1027.47
2017-01-09T07:27:52.109Z,1027.47
2017-01-09T07:28:17.659Z,1027.47
2017-01-09T07:28:43.227Z,1027.47
2017-01-09T07:29:08.974Z,1027.47
2017-01-09T07:29:34.531Z,1027.46
2017-01-09T07:30:00.072Z,1027.42
2017-01-09T07:30:25.738Z,1027.48
2017-01-09T07:30:51.371Z,1027.41
2017-01-09T07:31:16.936Z,1027.43
2017-01-09T07:31:42.549Z,1027.43
2017-01-09T07:32:08.103Z,1027.49
2017-01-09T07:32:33.655Z,1027.43
2017-01-09T07:32:59.199Z,1027.41
2017-01-09T07:33:24.903Z,1027.42
2017-01-09T07:33:50.477Z,1027.41
2017-01-09T07:34:16.052Z,1027.39
2017-01-09T07:34:41.637Z,1027.43
2017-01-09T07:35:07.256Z,1027.46
2017-01-09T07:35:32.806Z,1027.45
2017-01-09T07:35:58.377Z,1027.42
2017-01-09T07:36:23.939Z,1027.38
2017-01-09T07:36:49.505Z,1027.41
2017-01-09T07:37:15.118Z,1027.41
2017-01-09T07:37:40.680Z,1027.37
2017-01-09T07:38:06.260Z,1027.44
2017-01-09T07:38:31.830Z,1027.37
2017-01-09T07:38:57.516Z,1027.35
2017-01-09T07:39:23.089Z,1027.34
2017-01-09T07:39:48.679Z,1027.38
2017-01-09T07:40:14.322Z,1027.33
2017-01-09T07:40:39.880Z,1027.35
2017-01-09T07:41:05.456Z,1027.33
2017-01-09T07:41:31.129Z,1027.33
2017-01-09T07:41:56.705Z,1027.37
2017-01-09T07:42:22.341Z,1027.3
2017-01-09T07:42:47.909Z,1027.31
2017-01-09T07:43:13.478Z,1027.34
2017-01-09T07:43:39.034Z,1027.29
2017-01-09T07:44:04.742Z,1027.31
2017-01-09T07:44:30.321Z,1027.3
2017-01-09T07:44:55.884Z,1027.29
2017-01-09T07:45:21.453Z,1027.33
2017-01-09T07:45:47.287Z,1027.3
2017-01-09T07:46:12.844Z,1027.31
2017-01-09T07:46:38.425Z,1027.35
2017-01-09T07:47:03.984Z,1027.33
2017-01-09T07:47:29.571Z,1027.33
2017-01-09T07:47:55.136Z,1027.34
2017-01-09T07:48:20.691Z,1027.33
2017-01-09T07:48:46.278Z,1027.33
2017-01-09T07:49:11.834Z,1027.32
2017-01-09T07:49:37.547Z,1027.34
2017-01-09T07:50:03.120Z,1027.32
2017-01-09T07:50:28.690Z,1027.36
2017-01-09T07:50:54.243Z,1027.3
2017-01-09T07:51:19.872Z,1027.33
2017-01-09T07:51:45.448Z,1027.38
2017-01-09T07:52:11.035Z,1027.37
2017-01-09T07:52:36.619Z,1027.31
2017-01-09T07:53:02.262Z,1027.31
2017-01-09T07:53:27.825Z,1027.32
2017-01-09T07:53:53.410Z,1027.34
2017-01-09T07:54:18.951Z,1027.32
2017-01-09T07:54:44.538Z,1027.28
2017-01-09T07:55:10.118Z,1027.33
2017-01-09T07:55:35.678Z,1027.31
2017-01-09T07:56:01.243Z,1027.31
2017-01-09T07:56:26.932Z,1027.28
2017-01-09T07:56:52.486Z,1027.29
2017-01-09T07:57:18.044Z,1027.29
2017-01-09T07:57:43.622Z,1027.33
2017-01-09T07:58:09.235Z,1027.32
2017-01-09T07:58:34.798Z,1027.29
2017-01-09T07:59:00.353Z,1027.31
2017-01-09T07:59:25.926Z,1027.3
2017-01-09T07:59:51.481Z,1027.35
2017-01-09T08:00:17.060Z,1027.32
2017-01-09T08:00:42.631Z,1027.35
2017-01-09T08:01:08.211Z,1027.32
2017-01-09T08:01:33.898Z,1027.33
2017-01-09T08:01:59.511Z,1027.33
2017-01-09T08:02:25.072Z,1027.37
2017-01-09T08:02:50.727Z,1027.3
2017-01-09T08:03:16.295Z,1027.31
2017-01-09T08:03:41.848Z,1027.31
2017-01-09T08:04:07.487Z,1027.32
2017-01-09T08:04:33.130Z,1027.33
2017-01-09T08:04:58.708Z,1027.32
2017-01-09T08:05:24.345Z,1027.33
2017-01-09T08:05:49.917Z,1027.29
2017-01-09T08:06:15.493Z,1027.29
2017-01-09T08:06:41.054Z,1027.3
2017-01-09T08:07:06.723Z,1027.3
2017-01-09T08:07:32.291Z,1027.3
2017-01-09T08:07:58.029Z,1027.29
2017-01-09T08:08:23.599Z,1027.29
2017-01-09T08:08:49.161Z,1027.25
2017-01-09T08:09:14.750Z,1027.24
2017-01-09T08:09:40.303Z,1027.29
2017-01-09T08:10:05.918Z,1027.23
2017-01-09T08:10:31.503Z,1027.24
2017-01-09T08:10:57.080Z,1027.23
2017-01-09T08:11:22.761Z,1027.23
2017-01-09T08:11:48.360Z,1027.21
2017-01-09T08:12:13.929Z,1027.23
2017-01-09T08:12:39.520Z,1027.23
2017-01-09T08:13:05.080Z,1027.23
2017-01-09T08:13:30.671Z,1027.21
2017-01-09T08:13:56.227Z,1027.21
2017-01-09T08:14:21.809Z,1027.19
2017-01-09T08:14:47.368Z,1027.19
2017-01-09T08:15:12.937Z,1027.13
2017-01-09T08:15:39.078Z,1027.15
2017-01-09T08:16:04.091Z,1027.15
2017-01-09T08:16:29.748Z,1027.13
2017-01-09T08:16:55.427Z,1027.16
2017-01-09T08:17:21.011Z,1027.16
2017-01-09T08:17:46.572Z,1027.11
2017-01-09T08:19:05.201Z,1027.12
2017-01-09T08:19:30.872Z,1027.09
2017-01-09T08:19:56.483Z,1027.05
2017-01-09T08:20:22.041Z,1027.07
2017-01-09T08:20:47.697Z,1027.05
2017-01-09T08:21:13.270Z,1027.1
2017-01-09T08:21:38.848Z,1027.06
2017-01-09T08:22:04.417Z,1027.05
2017-01-09T08:22:30.124Z,1027.07
2017-01-09T08:22:55.774Z,1027.04
2017-01-09T08:23:21.345Z,1027.05
2017-01-09T08:23:46.886Z,1027.08
2017-01-09T08:24:12.429Z,1027.07
2017-01-09T08:24:38.001Z,1027.02
2017-01-09T08:25:03.624Z,1027.02
2017-01-09T08:25:29.158Z,1027.04
2017-01-09T08:25:54.711Z,1027.03
2017-01-09T08:26:20.257Z,1027.02
2017-01-09T08:26:45.786Z,1026.99
2017-01-09T08:27:11.342Z,1026.96
2017-01-09T08:27:36.876Z,1026.99
2017-01-09T08:28:02.463Z,1026.97
2017-01-09T08:28:28.049Z,1027.02
2017-01-09T08:28:53.598Z,1026.98
2017-01-09T08:29:19.156Z,1026.96
2017-01-09T08:29:44.711Z,1026.97
2017-01-09T08:30:10.265Z,1026.99
2017-01-09T08:30:35.815Z,1026.95
2017-01-09T08:31:01.377Z,1026.91
2017-01-09T08:31:27.667Z,1026.92
2017-01-09T08:31:53.248Z,1026.92
2017-01-09T08:32:18.806Z,1026.93
2017-01-09T08:32:44.367Z,1026.92
2017-01-09T08:33:09.959Z,1026.91
2017-01-09T08:33:35.506Z,1026.9
2017-01-09T08:34:01.078Z,1026.93
2017-01-09T08:34:26.645Z,1026.89
2017-01-09T08:34:52.225Z,1026.87
2017-01-09T08:35:17.791Z,1026.92
2017-01-09T08:35:43.426Z,1026.87
2017-01-09T08:36:09.125Z,1026.89
2017-01-09T08:36:34.698Z,1026.88
2017-01-09T08:37:00.271Z,1026.87
2017-01-09T08:37:25.907Z,1026.84
2017-01-09T08:37:51.472Z,1026.84
2017-01-09T08:38:17.070Z,1026.82
2017-01-09T08:38:42.697Z,1026.8
2017-01-09T08:39:08.260Z,1026.79
2017-01-09T08:39:33.837Z,1026.79
2017-01-09T08:39:59.397Z,1026.78
2017-01-09T08:40:25.076Z,1026.77
2017-01-09T08:40:50.681Z,1026.78
2017-01-09T08:41:16.231Z,1026.76
2017-01-09T08:41:41.909Z,1026.73
2017-01-09T08:42:07.519Z,1026.74
2017-01-09T08:42:33.093Z,1026.66
2017-01-09T08:42:58.742Z,1026.67
2017-01-09T08:43:24.325Z,1026.69
2017-01-09T08:43:49.951Z,1026.67
2017-01-09T08:44:15.595Z,1026.66
2017-01-09T08:44:41.141Z,1026.69
2017-01-09T08:45:06.703Z,1026.68
2017-01-09T08:45:32.246Z,1026.61
2017-01-09T08:45:57.831Z,1026.65
2017-01-09T08:46:23.401Z,1026.61
2017-01-09T08:46:49.014Z,1026.63
2017-01-09T08:47:14.554Z,1026.66
2017-01-09T08:47:40.119Z,1026.66
2017-01-09T08:48:05.686Z,1026.65
2017-01-09T08:48:31.321Z,1026.65
2017-01-09T08:48:56.877Z,1026.64
2017-01-09T08:49:22.439Z,1026.64
2017-01-09T08:49:48.019Z,1026.65
2017-01-09T08:50:13.602Z,1026.7
2017-01-09T08:50:39.177Z,1026.66
2017-01-09T08:51:04.867Z,1026.65
2017-01-09T08:51:30.433Z,1026.64
2017-01-09T08:51:55.999Z,1026.66
2017-01-09T08:52:21.570Z,1026.65
2017-01-09T08:52:47.287Z,1026.66
2017-01-09T08:53:12.882Z,1026.64
2017-01-09T08:53:38.454Z,1026.66
2017-01-09T08:54:04.055Z,1026.68
2017-01-09T08:54:29.595Z,1026.64
2017-01-09T08:54:55.161Z,1026.66
2017-01-09T08:55:20.697Z,1026.63
2017-01-09T08:55:46.268Z,1026.63
2017-01-09T08:56:11.873Z,1026.63
2017-01-09T08:56:37.427Z,1026.68
2017-01-09T08:57:03.057Z,1026.65
2017-01-09T08:57:28.726Z,1026.65
2017-01-09T08:58:26.835Z,1026.65
2017-01-09T08:58:53.316Z,1026.68
2017-01-09T08:59:20.011Z,1026.65
2017-01-09T09:01:26.386Z,1026.61
2017-01-09T09:01:51.959Z,1026.63
2017-01-09T09:02:17.530Z,1026.63
2017-01-09T09:02:43.206Z,1026.61
2017-01-09T09:03:08.782Z,1026.64
2017-01-09T09:03:34.367Z,1026.62
2017-01-09T09:04:00.048Z,1026.67
2017-01-09T09:04:25.628Z,1026.62
2017-01-09T09:04:51.194Z,1026.65
2017-01-09T09:05:17.791Z,1026.65
2017-01-09T09:05:43.256Z,1026.66
2017-01-09T09:06:08.930Z,1026.65
2017-01-09T09:06:34.551Z,1026.65
2017-01-09T09:07:00.100Z,1026.63
2017-01-09T09:07:25.788Z,1026.64
2017-01-09T09:07:51.377Z,1026.61
2017-01-09T09:08:16.930Z,1026.62
2017-01-09T09:08:42.613Z,1026.63
2017-01-09T09:09:08.192Z,1026.62
2017-01-09T09:09:33.755Z,1026.6
2017-01-09T09:09:59.356Z,1026.64
2017-01-09T09:10:24.955Z,1026.64
2017-01-09T09:10:50.558Z,1026.63
2017-01-09T09:11:16.153Z,1026.59
2017-01-09T09:11:41.731Z,1026.58
2017-01-09T09:12:07.417Z,1026.59
2017-01-09T09:12:32.988Z,1026.61
2017-01-09T09:12:59.284Z,1026.6
2017-01-09T09:13:24.191Z,1026.59
2017-01-09T09:13:49.760Z,1026.59
2017-01-09T09:14:15.316Z,1026.62
2017-01-09T09:14:41.064Z,1026.6
2017-01-09T09:15:06.643Z,1026.64
2017-01-09T09:15:32.218Z,1026.58
2017-01-09T09:15:57.797Z,1026.61
2017-01-09T09:16:23.495Z,1026.58
2017-01-09T09:16:49.048Z,1026.6
2017-01-09T09:17:14.662Z,1026.6
2017-01-09T09:17:40.286Z,1026.61
2017-01-09T09:18:05.860Z,1026.63
2017-01-09T09:18:31.438Z,1026.59
2017-01-09T09:18:57.018Z,1026.61
2017-01-09T09:19:22.604Z,1026.57
2017-01-09T09:19:48.183Z,1026.62
2017-01-09T09:20:13.824Z,1026.61
2017-01-09T09:20:39.504Z,1026.64
2017-01-09T09:21:05.088Z,1026.65
2017-01-09T09:21:30.702Z,1026.62
2017-01-09T09:21:56.293Z,1026.63
2017-01-09T09:22:21.860Z,1026.69
2017-01-09T09:22:47.510Z,1026.62
2017-01-09T09:23:13.098Z,1026.62
2017-01-09T09:23:38.789Z,1026.68
2017-01-09T09:24:04.395Z,1026.63
2017-01-09T09:24:29.950Z,1026.66
2017-01-09T09:24:55.529Z,1026.61
2017-01-09T09:25:21.075Z,1026.61
2017-01-09T09:25:46.633Z,1026.59
2017-01-09T09:26:12.177Z,1026.6
2017-01-09T09:26:37.748Z,1026.61
2017-01-09T09:27:03.282Z,1026.6
2017-01-09T09:27:28.871Z,1026.6
2017-01-09T09:27:54.414Z,1026.61